sensor_id;sensor_type;location;lat;lon;timestamp;temperature;humidity
15152;DHT22;7676;50.900;6.234;2022-07-10T00:01:01;18.30;99.90
15152;DHT22;7676;50.900;6.234;2022-07-10T00:06:03;18.50;99.90
15152;DHT22;7676;50.900;6.234;2022-07-10T00:11:06;18.40;99.90
15152;DHT22;7676;50.900;6.234;2022-07-10T00:16:09;18.40;99.90
15152;DHT22;7676;50.900;6.234;2022-07-10T00:21:12;18.40;99.90
15152;DHT22;7676;50.900;6.234;2022-07-10T00:26:14;18.30;99.90
15152;DHT22;7676;50.900;6.234;2022-07-10T00:31:17;18.30;99.90
15152;DHT22;7676;50.900;6.234;2022-07-10T00:36:19;18.20;99.90
15152;DHT22;7676;50.900;6.234;2022-07-10T00:41:22;18.20;99.90
15152;DHT22;7676;50.900;6.234;2022-07-10T00:46:25;18.20;99.90
15152;DHT22;7676;50.900;6.234;2022-07-10T00:51:29;18.10;99.90
15152;DHT22;7676;50.900;6.234;2022-07-10T00:56:32;18.10;99.90
15152;DHT22;7676;50.900;6.234;2022-07-10T01:01:34;18.20;99.90
15152;DHT22;7676;50.900;6.234;2022-07-10T01:06:37;14.60;99.90
15152;DHT22;7676;50.900;6.234;2022-07-10T01:11:39;18.00;99.90
15152;DHT22;7676;50.900;6.234;2022-07-10T01:16:42;18.10;99.90
15152;DHT22;7676;50.900;6.234;2022-07-10T01:21:44;17.80;99.90
15152;DHT22;7676;50.900;6.234;2022-07-10T01:26:47;18.00;99.90
15152;DHT22;7676;50.900;6.234;2022-07-10T01:31:49;17.90;99.90
15152;DHT22;7676;50.900;6.234;2022-07-10T01:36:58;17.90;99.90
15152;DHT22;7676;50.900;6.234;2022-07-10T01:42:00;17.90;99.90
15152;DHT22;7676;50.900;6.234;2022-07-10T01:47:03;17.90;99.90
15152;DHT22;7676;50.900;6.234;2022-07-10T01:52:05;18.00;99.90
15152;DHT22;7676;50.900;6.234;2022-07-10T01:57:08;17.80;99.90
15152;DHT22;7676;50.900;6.234;2022-07-10T02:02:11;17.70;99.90
15152;DHT22;7676;50.900;6.234;2022-07-10T02:07:16;17.80;99.90
15152;DHT22;7676;50.900;6.234;2022-07-10T02:12:19;17.90;99.90
15152;DHT22;7676;50.900;6.234;2022-07-10T02:17:22;17.90;99.90
15152;DHT22;7676;50.900;6.234;2022-07-10T02:22:25;17.80;99.90
15152;DHT22;7676;50.900;6.234;2022-07-10T02:27:28;17.80;99.90
15152;DHT22;7676;50.900;6.234;2022-07-10T02:32:30;17.90;99.90
15152;DHT22;7676;50.900;6.234;2022-07-10T02:37:33;18.00;99.90
15152;DHT22;7676;50.900;6.234;2022-07-10T02:42:36;17.90;99.90
15152;DHT22;7676;50.900;6.234;2022-07-10T02:47:39;17.70;99.90
15152;DHT22;7676;50.900;6.234;2022-07-10T02:52:41;17.80;99.90
15152;DHT22;7676;50.900;6.234;2022-07-10T02:57:44;17.80;99.90
15152;DHT22;7676;50.900;6.234;2022-07-10T03:02:46;17.70;99.90
15152;DHT22;7676;50.900;6.234;2022-07-10T03:07:49;17.80;99.90
15152;DHT22;7676;50.900;6.234;2022-07-10T03:12:51;17.70;99.90
15152;DHT22;7676;50.900;6.234;2022-07-10T03:17:53;17.70;99.90
15152;DHT22;7676;50.900;6.234;2022-07-10T03:22:56;17.60;99.90
15152;DHT22;7676;50.900;6.234;2022-07-10T03:27:58;17.50;99.90
15152;DHT22;7676;50.900;6.234;2022-07-10T03:33:01;17.50;99.90
15152;DHT22;7676;50.900;6.234;2022-07-10T03:38:05;17.50;99.90
15152;DHT22;7676;50.900;6.234;2022-07-10T03:43:08;17.40;99.90
15152;DHT22;7676;50.900;6.234;2022-07-10T03:48:10;17.40;99.90
15152;DHT22;7676;50.900;6.234;2022-07-10T03:53:13;17.30;99.90
15152;DHT22;7676;50.900;6.234;2022-07-10T03:58:15;17.10;99.90
15152;DHT22;7676;50.900;6.234;2022-07-10T04:03:18;17.00;99.90
15152;DHT22;7676;50.900;6.234;2022-07-10T04:08:20;17.20;99.90
15152;DHT22;7676;50.900;6.234;2022-07-10T04:13:22;17.20;99.90
15152;DHT22;7676;50.900;6.234;2022-07-10T04:18:25;17.10;99.90
15152;DHT22;7676;50.900;6.234;2022-07-10T04:23:27;17.30;99.90
15152;DHT22;7676;50.900;6.234;2022-07-10T04:28:29;17.20;99.90
15152;DHT22;7676;50.900;6.234;2022-07-10T04:33:32;17.00;99.90
15152;DHT22;7676;50.900;6.234;2022-07-10T04:38:34;17.20;99.90
15152;DHT22;7676;50.900;6.234;2022-07-10T04:43:37;17.20;99.90
15152;DHT22;7676;50.900;6.234;2022-07-10T04:48:39;17.20;99.90
15152;DHT22;7676;50.900;6.234;2022-07-10T04:53:42;17.20;99.90
15152;DHT22;7676;50.900;6.234;2022-07-10T04:58:44;17.90;99.90
15152;DHT22;7676;50.900;6.234;2022-07-10T05:03:54;18.30;99.90
15152;DHT22;7676;50.900;6.234;2022-07-10T05:08:57;18.40;99.90
15152;DHT22;7676;50.900;6.234;2022-07-10T05:13:59;18.20;99.90
15152;DHT22;7676;50.900;6.234;2022-07-10T05:19:02;18.00;99.90
15152;DHT22;7676;50.900;6.234;2022-07-10T05:24:04;17.80;99.90
15152;DHT22;7676;50.900;6.234;2022-07-10T05:29:07;17.90;99.90
15152;DHT22;7676;50.900;6.234;2022-07-10T05:34:10;17.80;99.90
15152;DHT22;7676;50.900;6.234;2022-07-10T05:39:12;17.90;99.90
15152;DHT22;7676;50.900;6.234;2022-07-10T05:44:14;18.00;99.90
15152;DHT22;7676;50.900;6.234;2022-07-10T05:49:17;18.00;99.90
15152;DHT22;7676;50.900;6.234;2022-07-10T05:54:19;18.10;99.90
15152;DHT22;7676;50.900;6.234;2022-07-10T05:59:21;17.90;99.90
15152;DHT22;7676;50.900;6.234;2022-07-10T06:04:24;17.80;99.90
15152;DHT22;7676;50.900;6.234;2022-07-10T06:09:26;18.00;99.90
15152;DHT22;7676;50.900;6.234;2022-07-10T06:14:29;17.70;99.90
15152;DHT22;7676;50.900;6.234;2022-07-10T06:19:31;17.60;99.90
15152;DHT22;7676;50.900;6.234;2022-07-10T06:24:34;17.50;99.90
15152;DHT22;7676;50.900;6.234;2022-07-10T06:29:37;17.50;99.90
15152;DHT22;7676;50.900;6.234;2022-07-10T06:34:39;17.50;99.90
15152;DHT22;7676;50.900;6.234;2022-07-10T06:39:41;17.40;99.90
15152;DHT22;7676;50.900;6.234;2022-07-10T06:44:44;17.20;99.90
15152;DHT22;7676;50.900;6.234;2022-07-10T06:49:47;16.90;99.90
15152;DHT22;7676;50.900;6.234;2022-07-10T06:54:50;17.60;99.90
15152;DHT22;7676;50.900;6.234;2022-07-10T06:59:54;17.70;99.90
15152;DHT22;7676;50.900;6.234;2022-07-10T07:04:57;17.90;99.90
15152;DHT22;7676;50.900;6.234;2022-07-10T07:09:59;17.90;99.90
15152;DHT22;7676;50.900;6.234;2022-07-10T07:15:02;17.90;99.90
15152;DHT22;7676;50.900;6.234;2022-07-10T07:20:05;18.10;99.90
15152;DHT22;7676;50.900;6.234;2022-07-10T07:25:26;18.40;99.90
15152;DHT22;7676;50.900;6.234;2022-07-10T07:30:28;18.50;99.90
15152;DHT22;7676;50.900;6.234;2022-07-10T07:35:31;18.70;99.90
15152;DHT22;7676;50.900;6.234;2022-07-10T07:40:34;18.70;99.90
15152;DHT22;7676;50.900;6.234;2022-07-10T07:45:36;18.40;99.90
15152;DHT22;7676;50.900;6.234;2022-07-10T07:50:39;18.70;99.90
15152;DHT22;7676;50.900;6.234;2022-07-10T07:55:41;18.90;99.90
15152;DHT22;7676;50.900;6.234;2022-07-10T08:00:44;18.90;99.90
15152;DHT22;7676;50.900;6.234;2022-07-10T08:05:46;18.90;99.90
15152;DHT22;7676;50.900;6.234;2022-07-10T08:10:49;19.20;99.90
15152;DHT22;7676;50.900;6.234;2022-07-10T08:15:51;19.20;99.90
15152;DHT22;7676;50.900;6.234;2022-07-10T08:21:00;19.30;99.90
15152;DHT22;7676;50.900;6.234;2022-07-10T08:26:03;19.40;99.90
15152;DHT22;7676;50.900;6.234;2022-07-10T08:31:05;19.00;99.90
15152;DHT22;7676;50.900;6.234;2022-07-10T08:36:14;19.40;99.90
15152;DHT22;7676;50.900;6.234;2022-07-10T08:41:38;19.70;99.90
15152;DHT22;7676;50.900;6.234;2022-07-10T08:46:41;19.90;99.90
15152;DHT22;7676;50.900;6.234;2022-07-10T08:57:20;18.90;99.90
15152;DHT22;7676;50.900;6.234;2022-07-10T09:02:22;19.10;99.90
15152;DHT22;7676;50.900;6.234;2022-07-10T09:07:25;19.90;99.90
15152;DHT22;7676;50.900;6.234;2022-07-10T09:13:00;20.30;99.90
15152;DHT22;7676;50.900;6.234;2022-07-10T09:18:06;20.50;99.90
15152;DHT22;7676;50.900;6.234;2022-07-10T09:23:20;20.40;99.90
15152;DHT22;7676;50.900;6.234;2022-07-10T09:28:23;20.40;99.90
15152;DHT22;7676;50.900;6.234;2022-07-10T09:33:29;20.20;99.90
15152;DHT22;7676;50.900;6.234;2022-07-10T09:44:02;20.30;99.90
15152;DHT22;7676;50.900;6.234;2022-07-10T09:49:13;20.20;99.90
15152;DHT22;7676;50.900;6.234;2022-07-10T09:54:16;19.30;99.90
15152;DHT22;7676;50.900;6.234;2022-07-10T09:59:21;18.70;99.90
15152;DHT22;7676;50.900;6.234;2022-07-10T10:04:24;19.00;99.90
15152;DHT22;7676;50.900;6.234;2022-07-10T10:09:32;18.60;99.90
15152;DHT22;7676;50.900;6.234;2022-07-10T10:14:38;18.30;99.90
15152;DHT22;7676;50.900;6.234;2022-07-10T10:19:42;18.70;99.90
15152;DHT22;7676;50.900;6.234;2022-07-10T10:25:05;18.70;99.90
15152;DHT22;7676;50.900;6.234;2022-07-10T10:30:08;19.10;99.90
15152;DHT22;7676;50.900;6.234;2022-07-10T10:35:11;19.20;99.90
15152;DHT22;7676;50.900;6.234;2022-07-10T10:40:33;18.30;99.90
15152;DHT22;7676;50.900;6.234;2022-07-10T10:45:36;18.70;99.90
15152;DHT22;7676;50.900;6.234;2022-07-10T11:01:27;20.10;99.90
15152;DHT22;7676;50.900;6.234;2022-07-10T11:17:07;20.50;99.90
15152;DHT22;7676;50.900;6.234;2022-07-10T11:22:49;19.80;99.90
15152;DHT22;7676;50.900;6.234;2022-07-10T11:28:04;19.70;99.90
15152;DHT22;7676;50.900;6.234;2022-07-10T11:33:11;20.40;99.90
15152;DHT22;7676;50.900;6.234;2022-07-10T11:38:22;20.60;99.90
15152;DHT22;7676;50.900;6.234;2022-07-10T11:43:25;21.10;99.90
15152;DHT22;7676;50.900;6.234;2022-07-10T11:48:27;21.70;99.90
15152;DHT22;7676;50.900;6.234;2022-07-10T11:53:30;21.90;99.90
15152;DHT22;7676;50.900;6.234;2022-07-10T11:58:32;21.20;99.90
15152;DHT22;7676;50.900;6.234;2022-07-10T12:03:36;21.40;99.90
15152;DHT22;7676;50.900;6.234;2022-07-10T12:08:46;21.70;99.90
15152;DHT22;7676;50.900;6.234;2022-07-10T12:13:50;22.10;99.90
15152;DHT22;7676;50.900;6.234;2022-07-10T12:18:54;22.20;99.90
15152;DHT22;7676;50.900;6.234;2022-07-10T12:23:58;21.80;99.90
15152;DHT22;7676;50.900;6.234;2022-07-10T12:29:02;21.50;99.90
15152;DHT22;7676;50.900;6.234;2022-07-10T12:34:05;22.10;99.90
15152;DHT22;7676;50.900;6.234;2022-07-10T12:39:08;21.60;99.90
15152;DHT22;7676;50.900;6.234;2022-07-10T12:44:11;22.00;99.90
15152;DHT22;7676;50.900;6.234;2022-07-10T12:49:15;21.90;99.90
15152;DHT22;7676;50.900;6.234;2022-07-10T12:54:34;22.40;99.90
15152;DHT22;7676;50.900;6.234;2022-07-10T12:59:37;22.50;99.90
15152;DHT22;7676;50.900;6.234;2022-07-10T13:04:39;22.80;99.90
15152;DHT22;7676;50.900;6.234;2022-07-10T13:09:42;22.80;99.90
15152;DHT22;7676;50.900;6.234;2022-07-10T13:14:46;22.40;99.90
15152;DHT22;7676;50.900;6.234;2022-07-10T13:19:50;21.60;99.90
15152;DHT22;7676;50.900;6.234;2022-07-10T13:24:53;21.10;99.90
15152;DHT22;7676;50.900;6.234;2022-07-10T13:29:55;22.00;99.90
15152;DHT22;7676;50.900;6.234;2022-07-10T13:34:57;22.70;99.90
15152;DHT22;7676;50.900;6.234;2022-07-10T13:40:00;22.20;99.90
15152;DHT22;7676;50.900;6.234;2022-07-10T13:45:02;22.70;99.90
15152;DHT22;7676;50.900;6.234;2022-07-10T13:50:05;22.60;99.90
15152;DHT22;7676;50.900;6.234;2022-07-10T13:55:08;22.60;99.90
15152;DHT22;7676;50.900;6.234;2022-07-10T14:00:11;22.30;99.90
15152;DHT22;7676;50.900;6.234;2022-07-10T14:05:13;22.10;99.90
15152;DHT22;7676;50.900;6.234;2022-07-10T14:10:16;22.00;99.90
15152;DHT22;7676;50.900;6.234;2022-07-10T14:15:19;22.00;99.90
15152;DHT22;7676;50.900;6.234;2022-07-10T14:20:21;22.10;99.90
15152;DHT22;7676;50.900;6.234;2022-07-10T14:25:25;22.20;99.90
15152;DHT22;7676;50.900;6.234;2022-07-10T14:30:29;22.70;99.90
15152;DHT22;7676;50.900;6.234;2022-07-10T14:35:36;22.80;99.90
15152;DHT22;7676;50.900;6.234;2022-07-10T14:40:41;22.80;99.90
15152;DHT22;7676;50.900;6.234;2022-07-10T14:45:45;22.60;99.90
15152;DHT22;7676;50.900;6.234;2022-07-10T14:50:55;22.50;99.90
15152;DHT22;7676;50.900;6.234;2022-07-10T14:56:00;22.20;99.90
15152;DHT22;7676;50.900;6.234;2022-07-10T15:01:04;22.20;99.90
15152;DHT22;7676;50.900;6.234;2022-07-10T15:06:09;22.30;99.90
15152;DHT22;7676;50.900;6.234;2022-07-10T15:11:12;22.70;99.90
15152;DHT22;7676;50.900;6.234;2022-07-10T15:16:14;23.00;99.90
15152;DHT22;7676;50.900;6.234;2022-07-10T15:21:17;22.80;99.90
15152;DHT22;7676;50.900;6.234;2022-07-10T15:26:19;22.40;99.90
15152;DHT22;7676;50.900;6.234;2022-07-10T15:31:22;22.20;99.90
15152;DHT22;7676;50.900;6.234;2022-07-10T15:36:24;22.70;99.90
15152;DHT22;7676;50.900;6.234;2022-07-10T15:41:27;22.70;99.90
15152;DHT22;7676;50.900;6.234;2022-07-10T15:46:29;22.70;99.90
15152;DHT22;7676;50.900;6.234;2022-07-10T15:51:33;22.50;99.90
15152;DHT22;7676;50.900;6.234;2022-07-10T15:56:35;22.50;99.90
15152;DHT22;7676;50.900;6.234;2022-07-10T16:01:40;22.50;99.90
15152;DHT22;7676;50.900;6.234;2022-07-10T16:06:43;22.00;99.90
15152;DHT22;7676;50.900;6.234;2022-07-10T16:11:45;22.00;99.90
15152;DHT22;7676;50.900;6.234;2022-07-10T16:16:48;22.00;99.90
15152;DHT22;7676;50.900;6.234;2022-07-10T16:21:51;22.40;99.90
15152;DHT22;7676;50.900;6.234;2022-07-10T16:26:54;22.50;99.90
15152;DHT22;7676;50.900;6.234;2022-07-10T16:31:56;22.40;99.90
15152;DHT22;7676;50.900;6.234;2022-07-10T16:36:59;22.30;99.90
15152;DHT22;7676;50.900;6.234;2022-07-10T16:42:01;22.30;99.90
15152;DHT22;7676;50.900;6.234;2022-07-10T16:47:04;22.70;99.90
15152;DHT22;7676;50.900;6.234;2022-07-10T16:52:06;22.50;99.90
15152;DHT22;7676;50.900;6.234;2022-07-10T16:57:09;22.60;99.90
15152;DHT22;7676;50.900;6.234;2022-07-10T17:02:17;22.30;99.90
15152;DHT22;7676;50.900;6.234;2022-07-10T17:07:19;22.50;99.90
15152;DHT22;7676;50.900;6.234;2022-07-10T17:12:21;22.60;99.90
15152;DHT22;7676;50.900;6.234;2022-07-10T17:17:24;22.60;99.90
15152;DHT22;7676;50.900;6.234;2022-07-10T17:22:27;22.60;99.90
15152;DHT22;7676;50.900;6.234;2022-07-10T17:27:29;22.20;99.90
15152;DHT22;7676;50.900;6.234;2022-07-10T17:32:31;22.40;99.90
15152;DHT22;7676;50.900;6.234;2022-07-10T17:37:34;22.00;99.90
15152;DHT22;7676;50.900;6.234;2022-07-10T17:42:36;21.70;99.90
15152;DHT22;7676;50.900;6.234;2022-07-10T17:47:39;21.80;99.90
15152;DHT22;7676;50.900;6.234;2022-07-10T17:52:42;21.90;99.90
15152;DHT22;7676;50.900;6.234;2022-07-10T17:57:45;21.70;99.90
15152;DHT22;7676;50.900;6.234;2022-07-10T18:02:47;21.90;99.90
15152;DHT22;7676;50.900;6.234;2022-07-10T18:07:52;21.80;99.90
15152;DHT22;7676;50.900;6.234;2022-07-10T18:12:54;21.90;99.90
15152;DHT22;7676;50.900;6.234;2022-07-10T18:17:57;21.60;99.90
15152;DHT22;7676;50.900;6.234;2022-07-10T18:23:03;21.50;99.90
15152;DHT22;7676;50.900;6.234;2022-07-10T18:28:07;21.60;99.90
15152;DHT22;7676;50.900;6.234;2022-07-10T18:33:09;21.50;99.90
15152;DHT22;7676;50.900;6.234;2022-07-10T18:38:50;22.10;99.90
15152;DHT22;7676;50.900;6.234;2022-07-10T18:43:53;21.80;99.90
15152;DHT22;7676;50.900;6.234;2022-07-10T18:48:56;21.80;99.90
15152;DHT22;7676;50.900;6.234;2022-07-10T18:53:59;21.90;99.90
15152;DHT22;7676;50.900;6.234;2022-07-10T18:59:01;21.90;99.90
15152;DHT22;7676;50.900;6.234;2022-07-10T19:04:04;21.90;99.90
15152;DHT22;7676;50.900;6.234;2022-07-10T19:09:07;21.90;99.90
15152;DHT22;7676;50.900;6.234;2022-07-10T19:14:16;21.90;99.90
15152;DHT22;7676;50.900;6.234;2022-07-10T19:19:18;21.90;99.90
15152;DHT22;7676;50.900;6.234;2022-07-10T19:24:21;22.30;99.90
15152;DHT22;7676;50.900;6.234;2022-07-10T19:29:25;22.40;99.90
15152;DHT22;7676;50.900;6.234;2022-07-10T19:34:27;22.50;99.90
15152;DHT22;7676;50.900;6.234;2022-07-10T19:39:30;22.60;99.90
15152;DHT22;7676;50.900;6.234;2022-07-10T19:44:33;22.60;99.90
15152;DHT22;7676;50.900;6.234;2022-07-10T19:49:35;22.60;99.90
15152;DHT22;7676;50.900;6.234;2022-07-10T19:54:38;22.60;99.90
15152;DHT22;7676;50.900;6.234;2022-07-10T19:59:41;22.60;99.90
15152;DHT22;7676;50.900;6.234;2022-07-10T20:04:43;22.60;99.90
15152;DHT22;7676;50.900;6.234;2022-07-10T20:09:46;22.70;99.90
15152;DHT22;7676;50.900;6.234;2022-07-10T20:14:49;22.70;99.90
15152;DHT22;7676;50.900;6.234;2022-07-10T20:19:51;22.80;99.90
15152;DHT22;7676;50.900;6.234;2022-07-10T20:24:54;22.90;99.90
15152;DHT22;7676;50.900;6.234;2022-07-10T20:29:57;23.00;99.90
15152;DHT22;7676;50.900;6.234;2022-07-10T20:34:59;23.10;99.90
15152;DHT22;7676;50.900;6.234;2022-07-10T20:40:03;23.10;99.90
15152;DHT22;7676;50.900;6.234;2022-07-10T20:45:08;24.30;99.90
15152;DHT22;7676;50.900;6.234;2022-07-10T20:50:15;23.10;99.90
15152;DHT22;7676;50.900;6.234;2022-07-10T20:55:17;23.10;99.90
15152;DHT22;7676;50.900;6.234;2022-07-10T21:00:21;23.10;99.90
15152;DHT22;7676;50.900;6.234;2022-07-10T21:05:24;23.10;99.90
15152;DHT22;7676;50.900;6.234;2022-07-10T21:10:30;23.10;99.90
15152;DHT22;7676;50.900;6.234;2022-07-10T21:15:45;23.10;99.90
15152;DHT22;7676;50.900;6.234;2022-07-10T21:20:48;23.10;99.90
15152;DHT22;7676;50.900;6.234;2022-07-10T21:25:50;23.10;99.90
15152;DHT22;7676;50.900;6.234;2022-07-10T21:30:53;23.10;99.90
15152;DHT22;7676;50.900;6.234;2022-07-10T21:35:55;23.00;99.90
15152;DHT22;7676;50.900;6.234;2022-07-10T21:40:58;23.00;99.90
15152;DHT22;7676;50.900;6.234;2022-07-10T21:46:07;22.90;99.90
15152;DHT22;7676;50.900;6.234;2022-07-10T21:51:09;22.90;99.90
15152;DHT22;7676;50.900;6.234;2022-07-10T21:56:12;22.60;99.90
15152;DHT22;7676;50.900;6.234;2022-07-10T22:01:14;22.60;99.90
15152;DHT22;7676;50.900;6.234;2022-07-10T22:06:17;22.50;99.90
15152;DHT22;7676;50.900;6.234;2022-07-10T22:11:19;22.50;99.90
15152;DHT22;7676;50.900;6.234;2022-07-10T22:16:22;22.40;99.90
15152;DHT22;7676;50.900;6.234;2022-07-10T22:21:25;22.30;99.90
15152;DHT22;7676;50.900;6.234;2022-07-10T22:26:28;22.20;99.90
15152;DHT22;7676;50.900;6.234;2022-07-10T22:31:30;22.30;99.90
15152;DHT22;7676;50.900;6.234;2022-07-10T22:36:33;22.10;99.90
15152;DHT22;7676;50.900;6.234;2022-07-10T22:41:36;22.10;99.90
15152;DHT22;7676;50.900;6.234;2022-07-10T22:46:38;22.10;99.90
15152;DHT22;7676;50.900;6.234;2022-07-10T22:51:40;22.00;99.90
15152;DHT22;7676;50.900;6.234;2022-07-10T22:56:43;22.00;99.90
15152;DHT22;7676;50.900;6.234;2022-07-10T23:01:46;21.90;99.90
15152;DHT22;7676;50.900;6.234;2022-07-10T23:06:51;21.80;99.90
15152;DHT22;7676;50.900;6.234;2022-07-10T23:11:53;21.70;99.90
15152;DHT22;7676;50.900;6.234;2022-07-10T23:16:56;21.60;99.90
15152;DHT22;7676;50.900;6.234;2022-07-10T23:21:58;21.70;99.90
15152;DHT22;7676;50.900;6.234;2022-07-10T23:27:00;21.60;99.90
15152;DHT22;7676;50.900;6.234;2022-07-10T23:32:03;21.70;99.90
15152;DHT22;7676;50.900;6.234;2022-07-10T23:37:06;21.60;99.90
15152;DHT22;7676;50.900;6.234;2022-07-10T23:42:09;21.40;99.90
15152;DHT22;7676;50.900;6.234;2022-07-10T23:47:12;21.40;99.90
15152;DHT22;7676;50.900;6.234;2022-07-10T23:52:15;21.10;99.90
15152;DHT22;7676;50.900;6.234;2022-07-10T23:57:19;21.30;99.90
